createdAt,value
2022-09-06T00:01:25.714Z,6.60
2022-09-06T00:07:27.627Z,7.30
2022-09-06T00:13:29.521Z,7.90
2022-09-06T00:19:31.317Z,7.33
2022-09-06T00:25:33.985Z,7.77
2022-09-06T00:31:35.861Z,7.33
2022-09-06T00:37:37.727Z,7.10
2022-09-06T00:43:40.689Z,8.07
2022-09-06T00:49:47.063Z,7.20
2022-09-06T00:55:49.429Z,7.00
2022-09-06T01:01:51.370Z,7.17
2022-09-06T01:08:16.832Z,6.83
2022-09-06T01:14:37.245Z,7.13
2022-09-06T01:20:54.249Z,6.97
2022-09-06T01:27:24.949Z,8.00
2022-09-06T01:34:05.278Z,7.57
2022-09-06T01:40:08.119Z,7.63
2022-09-06T01:46:09.944Z,7.57
2022-09-06T01:52:26.525Z,7.70
2022-09-06T01:59:06.937Z,7.17
2022-09-06T02:05:14.685Z,6.90
2022-09-06T02:11:17.170Z,6.60
2022-09-06T02:17:23.970Z,6.27
2022-09-06T02:23:31.357Z,7.27
2022-09-06T02:29:34.280Z,6.47
2022-09-06T02:35:45.110Z,6.17
2022-09-06T02:41:48.385Z,6.43
2022-09-06T02:47:50.186Z,5.57
2022-09-06T02:53:52.108Z,6.13
2022-09-06T02:59:53.944Z,6.60
2022-09-06T03:05:56.390Z,6.10
2022-09-06T03:11:58.154Z,6.37
2022-09-06T03:18:00.254Z,6.57
2022-09-06T03:24:02.284Z,6.23
2022-09-06T03:30:06.163Z,6.10
2022-09-06T03:36:07.996Z,5.50
2022-09-06T03:42:09.903Z,5.83
2022-09-06T03:48:11.739Z,5.33
2022-09-06T03:54:13.740Z,6.03
2022-09-06T04:00:15.915Z,5.90
2022-09-06T04:06:17.874Z,6.67
2022-09-06T04:12:19.770Z,6.27
2022-09-06T04:18:22.123Z,6.43
2022-09-06T04:24:24.048Z,6.80
2022-09-06T04:30:26.076Z,12.30
2022-09-06T04:36:28.126Z,10.93
2022-09-06T04:42:30.034Z,7.93
2022-09-06T04:48:31.961Z,7.37
2022-09-06T04:54:33.912Z,8.40
2022-09-06T05:00:36.600Z,8.63
2022-09-06T05:06:40.142Z,7.97
2022-09-06T05:12:44.293Z,8.60
2022-09-06T05:18:46.287Z,6.63
2022-09-06T05:24:48.163Z,6.07
2022-09-06T05:30:50.043Z,7.20
2022-09-06T05:36:51.912Z,6.20
2022-09-06T05:42:53.693Z,6.03
2022-09-06T05:48:58.231Z,5.97
2022-09-06T05:55:00.009Z,6.37
2022-09-06T06:01:16.230Z,6.13
2022-09-06T06:07:18.365Z,5.40
2022-09-06T06:13:20.183Z,5.47
2022-09-06T06:19:22.010Z,5.70
2022-09-06T06:25:26.378Z,5.37
2022-09-06T06:31:30.249Z,5.50
2022-09-06T06:37:36.731Z,5.40
2022-09-06T06:43:38.596Z,5.50
2022-09-06T06:49:40.363Z,4.50
2022-09-06T06:55:48.215Z,4.40
2022-09-06T07:01:57.534Z,4.33
2022-09-06T07:07:59.609Z,4.17
2022-09-06T07:14:01.467Z,4.73
2022-09-06T07:20:18.910Z,4.50
2022-09-06T07:26:26.347Z,4.10
2022-09-06T07:32:28.142Z,3.33
2022-09-06T07:38:31.541Z,3.47
2022-09-06T07:44:33.352Z,3.20
2022-09-06T07:50:51.855Z,3.20
2022-09-06T07:56:55.927Z,2.83
2022-09-06T08:03:00.312Z,3.33
2022-09-06T08:09:03.905Z,3.00
2022-09-06T08:15:06.571Z,3.87
2022-09-06T08:21:13.399Z,3.67
2022-09-06T08:27:15.156Z,3.00
2022-09-06T08:39:54.936Z,2.73
2022-09-06T08:45:57.468Z,2.50
2022-09-06T08:52:18.105Z,2.70
2022-09-06T09:04:57.558Z,1.90
2022-09-06T09:11:10.489Z,1.87
2022-09-06T09:17:27.988Z,2.07
2022-09-06T09:23:31.288Z,1.50
2022-09-06T09:35:52.757Z,0.97
2022-09-06T09:41:55.203Z,1.27
2022-09-06T09:47:57.920Z,0.90
2022-09-06T09:54:02.394Z,1.30
2022-09-06T10:00:13.460Z,1.30
2022-09-06T10:13:47.259Z,1.03
2022-09-06T10:26:46.749Z,1.57
2022-09-06T10:33:00.256Z,1.70
2022-09-06T10:39:43.763Z,1.80
2022-09-06T10:46:05.319Z,1.33
2022-09-06T10:52:11.889Z,1.10
2022-09-06T10:58:19.055Z,1.40
2022-09-06T11:10:57.344Z,1.50
2022-09-06T11:17:05.293Z,1.50
2022-09-06T11:36:50.990Z,2.00
2022-09-06T11:42:53.071Z,1.77
2022-09-06T11:49:02.992Z,1.60
2022-09-06T11:55:10.752Z,1.50
2022-09-06T12:01:12.600Z,1.70
2022-09-06T12:14:28.433Z,1.40
2022-09-06T12:33:41.053Z,1.60
2022-09-06T13:18:51.564Z,2.40
2022-09-06T13:37:41.940Z,2.25
2022-09-06T13:43:45.980Z,1.90
2022-09-06T13:56:48.270Z,2.40
2022-09-06T14:15:46.742Z,2.03
2022-09-06T14:21:48.905Z,1.85
2022-09-06T14:34:15.254Z,2.42
2022-09-06T14:40:17.767Z,2.90
2022-09-06T14:46:22.738Z,4.50
2022-09-06T14:52:39.166Z,3.28
2022-09-06T14:58:42.800Z,3.45
2022-09-06T15:04:47.473Z,4.50
2022-09-06T15:10:56.181Z,2.95
2022-09-06T15:23:32.767Z,3.45
2022-09-06T15:29:34.781Z,18.58
2022-09-06T15:35:38.617Z,7.50
2022-09-06T15:41:41.486Z,3.10
2022-09-06T15:47:43.480Z,3.00
2022-09-06T15:53:46.877Z,3.10
2022-09-06T16:02:09.634Z,3.37
2022-09-06T16:06:53.290Z,3.37
2022-09-06T16:12:55.749Z,3.90
2022-09-06T16:18:59.139Z,3.17
2022-09-06T16:25:01.116Z,3.40
2022-09-06T16:31:08.543Z,4.10
2022-09-06T16:37:10.564Z,11.23
2022-09-06T16:43:13.214Z,16.67
2022-09-06T16:49:17.274Z,20.40
2022-09-06T16:55:19.349Z,20.10
2022-09-06T17:01:21.969Z,16.47
2022-09-06T17:07:24.899Z,38.20
2022-09-06T17:13:27.758Z,65.93
2022-09-06T17:19:30.102Z,14.83
2022-09-06T17:25:32.993Z,11.23
2022-09-06T17:31:35.777Z,26.80
2022-09-06T17:37:37.571Z,17.80
2022-09-06T17:43:39.444Z,31.40
2022-09-06T17:49:42.655Z,10.07
2022-09-06T17:55:47.288Z,11.83
2022-09-06T18:01:49.095Z,8.70
2022-09-06T18:07:51.072Z,8.17
2022-09-06T18:13:57.354Z,9.40
2022-09-06T18:20:02.263Z,7.80
2022-09-06T18:26:08.002Z,9.07
2022-09-06T18:32:09.951Z,8.87
2022-09-06T18:38:12.835Z,9.27
2022-09-06T18:44:14.718Z,8.33
2022-09-06T18:50:17.304Z,6.07
2022-09-06T18:56:19.995Z,5.53
2022-09-06T19:02:23.640Z,5.70
2022-09-06T19:08:25.633Z,6.87
2022-09-06T19:14:27.610Z,7.07
2022-09-06T19:20:29.426Z,6.10
2022-09-06T19:26:34.272Z,6.73
2022-09-06T19:32:36.512Z,6.90
2022-09-06T19:38:59.578Z,9.33
2022-09-06T19:45:00.829Z,9.30
2022-09-06T19:51:08.295Z,7.53
2022-09-06T19:57:10.330Z,6.73
2022-09-06T20:03:12.475Z,5.33
2022-09-06T20:09:16.113Z,7.20
2022-09-06T20:15:17.949Z,7.40
2022-09-06T20:21:21.104Z,6.37
2022-09-06T20:27:23.026Z,6.83
2022-09-06T20:33:24.808Z,6.30
2022-09-06T20:39:26.686Z,6.53
2022-09-06T20:45:28.542Z,6.93
2022-09-06T20:51:31.287Z,7.37
2022-09-06T20:57:33.142Z,7.40
2022-09-06T21:03:38.638Z,7.50
2022-09-06T21:09:40.507Z,6.43
2022-09-06T21:15:42.438Z,6.77
2022-09-06T21:21:44.432Z,6.33
2022-09-06T21:27:46.241Z,6.93
2022-09-06T21:33:54.400Z,7.10
2022-09-06T21:39:56.270Z,6.57
2022-09-06T21:46:02.134Z,6.37
2022-09-06T21:52:04.145Z,6.90
2022-09-06T21:58:06.182Z,6.17
2022-09-06T22:04:08.464Z,6.37
2022-09-06T22:10:10.197Z,6.23
2022-09-06T22:16:13.215Z,6.13
2022-09-06T22:22:15.076Z,6.97
2022-09-06T22:28:16.879Z,6.77
2022-09-06T22:34:18.772Z,6.00
2022-09-06T22:40:20.726Z,6.80
2022-09-06T22:46:23.167Z,6.73
2022-09-06T22:52:25.029Z,5.80
2022-09-06T22:58:27.222Z,5.73
2022-09-06T23:04:29.192Z,5.30
2022-09-06T23:10:32.410Z,6.27
2022-09-06T23:16:34.369Z,6.23
2022-09-06T23:22:36.228Z,5.67
2022-09-06T23:28:39.032Z,5.50
2022-09-06T23:34:40.777Z,5.50
2022-09-06T23:40:42.493Z,5.40
2022-09-06T23:46:44.382Z,6.27
2022-09-06T23:52:46.404Z,5.10
2022-09-06T23:58:48.214Z,5.23
